Terminal Aerodrome Forecast
Issued by NWS

Current Version | Previous Version | Text Only | Print | Product List | Glossary On
Versions: 1 2 3 4 5 6 7 8 9 10 11 12 13 14 15
261
FTUS45 KRIW 210841 AAA
TAFCOD
TAF AMD
KCOD 210841Z 2109/2206 35010G18KT 6SM BR SCT003 BKN009
     FM211600 VRB05KT P6SM FEW008 SCT020
     FM211800 20006KT P6SM SCT250
     FM220000 25010G15KT P6SM SCT120 OVC200 WS020/27030KT
      AMD LTD TO CLD VIS AND WIND=

USA.gov is the U.S. government's official web portal to all federal, state and local government web resources and services.